Time;durP1;ratioP1;P1;durP2;ratioP2;P2;SDS_P1;SDS_P2;PMS_P1;PMS_P2;Temp;Humidity;BMP_temperature;BMP_pressure;BME280_temperature;BME280_humidity;BME280_pressure;Samples;Min_cycle;Max_cycle;Signal;HPM_P1;HPM_P2
2021/04/30 00:00:22;;;;;;;28.67;11.48;;;10.10;99.90;;;10.31;73.43;101086.72;5075222;28;20045;-73
2021/04/30 00:02:51;;;;;;;23.95;10.48;;;10.00;99.90;;;10.16;73.67;101070.84;5075290;28;20052;-73
2021/04/30 00:05:18;;;;;;;24.77;10.38;;;9.90;99.90;;;10.07;74.28;101073.44;5075300;28;20131;-73
2021/04/30 00:07:46;;;;;;;24.48;10.80;;;9.80;99.90;;;10.10;74.19;101076.13;5075204;28;20140;-73
2021/04/30 00:10:14;;;;;;;27.83;10.40;;;9.80;99.90;;;10.01;74.39;101075.19;5073871;28;20414;-73
2021/04/30 00:12:41;;;;;;;24.70;10.60;;;9.80;99.90;;;10.11;74.28;101068.19;5073805;28;20086;-73
2021/04/30 00:15:10;;;;;;;23.27;10.50;;;9.80;99.90;;;10.32;73.24;101056.72;5074680;28;20190;-73
2021/04/30 00:17:38;;;;;;;21.85;9.48;;;10.00;99.90;;;10.42;73.08;101069.06;5075031;28;20041;-73
2021/04/30 00:20:08;;;;;;;25.35;10.20;;;10.10;99.90;;;10.34;73.86;101073.47;5074924;28;20048;-73
2021/04/30 00:22:36;;;;;;;20.13;9.35;;;10.10;99.90;;;10.35;73.74;101076.16;5075045;28;20044;-73
2021/04/30 00:25:05;;;;;;;23.30;9.07;;;10.10;99.90;;;10.48;73.77;101072.59;5074900;28;20037;-73
2021/04/30 00:27:33;;;;;;;21.35;9.30;;;10.10;99.90;;;10.38;73.95;101069.94;5074851;28;20055;-73
2021/04/30 00:30:00;;;;;;;24.02;9.40;;;10.10;99.90;;;10.29;73.91;101072.59;5074784;28;20123;-73
2021/04/30 00:32:28;;;;;;;24.75;8.82;;;10.10;99.90;;;10.30;74.50;101064.66;5073483;28;20098;-73
2021/04/30 00:34:56;;;;;;;23.00;8.80;;;10.00;99.90;;;10.20;74.24;101073.47;5074465;28;20098;-73
2021/04/30 00:37:24;;;;;;;22.20;8.75;;;10.00;99.90;;;10.21;75.32;101067.31;5074679;28;20070;-73
2021/04/30 00:39:51;;;;;;;27.45;8.73;;;9.90;99.90;;;10.23;75.03;101068.22;5074234;28;20556;-73
2021/04/30 00:42:19;;;;;;;21.73;8.23;;;9.90;99.90;;;10.20;74.92;101051.47;5073251;28;20407;-73
2021/04/30 00:44:46;;;;;;;22.67;8.07;;;9.90;99.90;;;10.07;75.82;101058.47;5072351;28;20541;-73
2021/04/30 00:47:28;;;;;;;24.75;7.35;;;9.90;99.90;;;10.15;75.47;101061.16;5074182;28;20463;-73
2021/04/30 00:49:56;;;;;;;28.23;8.55;;;9.80;99.90;;;9.70;75.68;100974.78;5073164;28;20067;-73
2021/04/30 00:52:24;;;;;;;21.00;8.55;;;9.90;99.90;;;10.33;75.25;101067.34;5074022;28;20124;-73
2021/04/30 00:54:52;;;;;;;28.42;8.20;;;10.00;99.90;;;10.45;74.92;101071.72;5074364;28;20136;-73
2021/04/30 00:57:19;;;;;;;20.00;7.80;;;10.10;99.90;;;10.47;74.60;101075.25;5074039;28;20445;-73
2021/04/30 00:59:47;;;;;;;21.83;7.28;;;10.10;99.90;;;10.42;74.51;101072.59;5074055;28;20060;-73
2021/04/30 01:02:14;;;;;;;16.85;7.00;;;10.10;99.90;;;10.49;75.23;101079.63;5074161;28;20045;-73
2021/04/30 01:04:42;;;;;;;21.02;7.65;;;10.10;99.90;;;10.37;75.26;101076.13;5073825;28;20040;-73
2021/04/30 01:07:09;;;;;;;31.73;8.85;;;10.10;99.90;;;10.41;75.09;101081.44;5073744;28;20049;-73
2021/04/30 01:09:38;;;;;;;21.58;8.45;;;10.10;99.90;;;10.37;75.17;101078.78;5073624;28;20639;-73
2021/04/30 01:12:06;;;;;;;21.98;8.43;;;10.10;99.90;;;10.40;75.17;101081.41;5073922;28;20052;-73
2021/04/30 01:14:35;;;;;;;24.67;8.98;;;10.10;99.90;;;10.40;75.36;101086.69;5074066;28;20052;-73
2021/04/30 01:17:02;;;;;;;17.63;8.40;;;10.10;99.90;;;10.31;75.63;101084.97;5073882;28;20125;-73
2021/04/30 01:19:31;;;;;;;19.98;8.52;;;10.00;99.90;;;10.28;75.50;101084.06;5073474;28;20094;-73
2021/04/30 01:22:00;;;;;;;24.25;8.68;;;10.00;99.90;;;10.36;75.34;101077.00;5073697;28;20075;-73
2021/04/30 01:24:28;;;;;;;26.30;8.53;;;10.10;99.90;;;10.56;75.16;101083.16;5073769;28;20070;-73
2021/04/30 01:26:55;;;;;;;20.60;8.55;;;10.20;99.90;;;10.45;75.33;101077.03;5073654;28;20041;-73
2021/04/30 01:29:23;;;;;;;17.70;8.00;;;10.20;99.90;;;10.38;75.31;101089.34;5073172;28;20052;-73
2021/04/30 01:31:51;;;;;;;23.55;8.75;;;10.10;99.90;;;10.41;75.40;101092.00;5072255;28;20083;-73
2021/04/30 01:34:19;;;;;;;19.40;8.38;;;10.10;99.90;;;10.43;75.16;101084.94;5073259;28;20448;-73
2021/04/30 01:36:46;;;;;;;21.67;8.32;;;10.10;99.90;;;10.27;75.82;101093.75;5072195;28;20460;-73
2021/04/30 01:39:17;;;;;;;20.60;7.88;;;10.00;99.90;;;10.39;75.90;101092.88;5073165;28;20052;-73
2021/04/30 01:41:45;;;;;;;20.83;7.38;;;10.00;99.90;;;10.48;75.73;101091.13;5073379;28;20105;-73
2021/04/30 01:44:15;;;;;;;20.02;8.27;;;10.10;99.90;;;10.56;75.40;101088.47;5073356;28;20465;-73
2021/04/30 01:46:42;;;;;;;23.67;7.68;;;10.20;99.90;;;10.64;75.26;101094.63;5073407;28;20440;-73
2021/04/30 01:49:11;;;;;;;21.70;7.85;;;10.30;99.90;;;10.66;74.97;101092.88;5073293;28;20413;-73
2021/04/30 01:51:39;;;;;;;26.80;8.30;;;10.30;99.90;;;10.63;74.85;101099.03;5071995;28;20494;-73
2021/04/30 01:54:06;;;;;;;26.50;7.88;;;10.30;99.90;;;10.15;75.42;101010.94;5072937;28;20048;-73
2021/04/30 01:56:35;;;;;;;16.70;8.00;;;10.30;99.90;;;10.65;75.18;101086.69;5073146;28;20041;-74
2021/04/30 01:59:02;;;;;;;15.77;7.78;;;10.40;99.90;;;10.75;74.90;101096.38;5072889;28;20043;-73
2021/04/30 02:01:30;;;;;;;25.20;9.10;;;10.40;99.90;;;10.65;75.45;101097.25;5073125;28;20044;-74
2021/04/30 02:03:59;;;;;;;20.17;8.15;;;10.40;99.90;;;10.75;75.58;101106.06;5073077;28;20391;-73
2021/04/30 02:06:26;;;;;;;21.67;7.50;;;10.40;99.90;;;10.71;75.04;101106.94;5073102;28;20489;-73
2021/04/30 02:08:55;;;;;;;24.85;7.65;;;10.40;99.90;;;10.76;75.47;101108.72;5073067;28;20070;-74
2021/04/30 02:11:23;;;;;;;22.00;7.18;;;10.40;99.90;;;10.61;75.93;101105.19;5073287;28;20056;-73
2021/04/30 02:13:51;;;;;;;23.88;8.35;;;10.40;99.90;;;10.61;75.91;101105.19;5073023;28;20410;-74
2021/04/30 02:16:18;;;;;;;20.35;8.32;;;10.30;99.90;;;10.71;76.23;101099.03;5072739;28;20123;-73
2021/04/30 02:18:46;;;;;;;15.82;7.45;;;10.40;99.90;;;10.70;75.82;101094.63;5072658;28;20106;-73
2021/04/30 02:21:13;;;;;;;20.10;7.53;;;10.40;99.90;;;10.73;76.17;101107.84;5073138;28;20047;-73
2021/04/30 02:23:41;;;;;;;19.88;7.80;;;10.40;99.90;;;10.90;76.36;101098.09;5072918;28;20066;-73
2021/04/30 02:26:08;;;;;;;28.30;8.73;;;10.50;99.90;;;10.86;75.65;101101.63;5072867;28;20048;-73
2021/04/30 02:28:36;;;;;;;28.40;8.43;;;10.50;99.90;;;10.91;75.77;101102.53;5072847;28;20123;-75
2021/04/30 02:31:04;;;;;;;18.23;7.95;;;10.60;99.90;;;10.98;76.10;101103.38;5072552;28;20071;-73
2021/04/30 02:33:31;;;;;;;25.27;8.20;;;10.60;99.90;;;11.09;75.44;101093.66;5072415;28;20493;-73
2021/04/30 02:35:59;;;;;;;18.30;8.07;;;10.70;99.90;;;11.02;75.32;101092.78;5072820;28;20449;-74
2021/04/30 02:38:27;;;;;;;23.92;8.40;;;10.70;99.90;;;11.06;74.96;101098.94;5072569;28;20518;-75
2021/04/30 02:40:54;;;;;;;20.08;8.05;;;10.70;99.90;;;11.02;75.15;101098.06;5072679;28;20047;-75
2021/04/30 02:43:22;;;;;;;28.30;8.10;;;10.70;99.90;;;11.00;74.98;101099.84;5072352;28;20131;-75
2021/04/30 02:45:51;;;;;;;25.13;8.07;;;10.70;99.90;;;10.95;75.76;101096.34;5072731;28;20055;-74
2021/04/30 02:48:27;;;;;;;20.95;8.15;;;10.60;99.90;;;10.98;75.83;101096.31;5072385;28;20041;-76
2021/04/30 02:50:54;;;;;;;20.80;8.18;;;10.60;99.90;;;10.98;75.58;101103.38;5072738;28;20048;-75
2021/04/30 02:53:22;;;;;;;19.30;9.10;;;10.60;99.90;;;10.96;75.85;101103.38;5072641;28;20094;-75
2021/04/30 02:55:49;;;;;;;27.50;9.82;;;10.60;99.90;;;10.97;75.54;101109.56;5071183;28;20506;-75
2021/04/30 02:58:17;;;;;;;24.02;8.70;;;10.60;99.90;;;10.91;76.03;101107.81;5072589;28;20139;-75
2021/04/30 03:00:44;;;;;;;27.20;9.18;;;10.60;99.90;;;10.99;75.85;101099.84;5072540;28;20051;-75
2021/04/30 03:03:12;;;;;;;25.00;8.93;;;10.60;99.90;;;10.97;75.90;101097.22;5072519;28;20044;-74
2021/04/30 03:05:41;;;;;;;23.80;9.10;;;10.60;99.90;;;11.00;75.67;101105.13;5072460;28;20040;-73
2021/04/30 03:08:08;;;;;;;22.13;8.93;;;10.60;99.90;;;10.99;76.11;101099.84;5073407;28;20476;-73
2021/04/30 03:10:36;;;;;;;23.17;9.02;;;10.60;99.90;;;10.97;75.94;101093.69;5076259;28;20048;-74
2021/04/30 03:13:04;;;;;;;22.70;8.80;;;10.60;99.90;;;11.00;75.99;101093.66;5076135;28;20036;-74
2021/04/30 03:15:31;;;;;;;25.95;9.35;;;10.70;99.90;;;11.08;75.70;101090.13;5076197;28;20053;-74
2021/04/30 03:17:58;;;;;;;30.63;9.50;;;10.70;99.90;;;11.14;75.99;101102.44;5076127;28;20081;-74
2021/04/30 03:20:26;;;;;;;28.77;9.68;;;10.70;99.90;;;11.03;76.14;101107.78;5075730;28;20036;-75
2021/04/30 03:22:54;;;;;;;20.30;8.77;;;10.70;99.90;;;10.98;76.34;101091.03;5076022;28;20405;-73
2021/04/30 03:25:21;;;;;;;20.33;8.43;;;10.60;99.90;;;11.21;76.04;101098.88;5075709;28;20040;-74
2021/04/30 03:27:49;;;;;;;22.75;9.23;;;10.80;99.90;;;11.13;75.70;101090.97;5076007;28;20068;-73
2021/04/30 03:30:18;;;;;;;25.75;8.90;;;10.80;99.90;;;11.05;76.17;101098.09;5075874;28;20044;-74
2021/04/30 03:32:45;;;;;;;21.52;8.38;;;10.70;99.90;;;11.13;76.06;101100.72;5075902;28;20044;-73
2021/04/30 03:35:18;;;;;;;22.95;9.93;;;10.80;99.90;;;11.07;76.18;101101.56;5075593;28;20490;-73
2021/04/30 03:37:46;;;;;;;19.42;8.65;;;10.70;99.90;;;10.92;76.21;101069.00;5075622;28;20037;-74
2021/04/30 03:40:16;;;;;;;21.88;9.10;;;10.70;99.90;;;11.00;76.06;101083.97;5075641;28;20087;-73
2021/04/30 03:42:43;;;;;;;25.50;9.80;;;10.70;99.90;;;10.96;76.45;101092.78;5075756;28;20050;-73
2021/04/30 03:45:13;;;;;;;23.92;9.57;;;10.60;99.90;;;11.04;76.94;101101.59;5075425;28;20037;-73
2021/04/30 03:47:40;;;;;;;23.93;9.57;;;10.70;99.90;;;11.26;76.29;101095.38;5075690;28;20048;-73
2021/04/30 03:50:09;;;;;;;23.52;9.55;;;10.80;99.90;;;11.27;76.16;101105.06;5075611;28;20286;-74
2021/04/30 03:52:37;;;;;;;27.27;9.57;;;10.80;99.90;;;11.24;76.04;101101.53;5075258;28;20490;-73
2021/04/30 03:55:06;;;;;;;26.45;8.98;;;10.80;99.90;;;11.27;75.98;101094.47;5075329;28;20133;-72
2021/04/30 03:57:34;;;;;;;19.02;8.98;;;10.80;99.90;;;11.34;76.07;101096.19;5075418;28;20036;-75
2021/04/30 04:00:02;;;;;;;26.50;9.50;;;10.90;99.90;;;11.12;76.42;101098.94;5075380;28;20045;-73
2021/04/30 04:02:39;;;;;;;29.88;9.55;;;10.80;99.90;;;11.31;75.89;101077.69;5075104;28;20045;-74
2021/04/30 04:05:07;;;;;;;30.30;10.95;;;11.00;99.90;;;11.23;76.05;101092.72;5075067;28;20046;-73
2021/04/30 04:07:35;;;;;;;26.55;10.07;;;10.90;99.90;;;11.19;76.68;101098.03;5075233;28;20543;-73
2021/04/30 04:10:03;;;;;;;23.85;9.77;;;10.90;99.90;;;11.15;76.70;101099.78;5075179;28;20070;-73
2021/04/30 04:12:31;;;;;;;31.02;11.13;;;10.80;99.90;;;11.18;76.10;101091.88;5074937;28;20390;-73
2021/04/30 04:14:59;;;;;;;22.70;10.18;;;10.90;99.90;;;11.25;76.36;101090.94;5073721;28;20052;-73
2021/04/30 04:17:26;;;;;;;31.67;10.32;;;10.90;99.90;;;11.27;76.32;101091.81;5075090;28;20098;-73
2021/04/30 04:19:55;;;;;;;28.33;10.43;;;10.90;99.90;;;11.38;75.99;101086.50;5073882;28;20040;-74
2021/04/30 04:22:22;;;;;;;26.92;9.27;;;10.90;99.90;;;11.20;75.88;101068.03;5074900;28;20036;-73
2021/04/30 04:24:50;;;;;;;30.90;10.88;;;11.00;99.90;;;11.17;76.17;101095.38;5074952;28;20032;-74
2021/04/30 04:27:22;;;;;;;24.13;9.40;;;10.80;99.90;;;11.30;75.89;101088.28;5074955;28;20141;-74
2021/04/30 04:29:49;;;;;;;24.38;10.27;;;11.00;99.90;;;11.13;76.28;101098.91;5074832;28;20367;-73
2021/04/30 04:32:18;;;;;;;22.05;9.88;;;10.90;99.90;;;11.13;77.03;101098.91;5075083;28;20098;-73
2021/04/30 04:34:45;;;;;;;22.27;9.57;;;10.80;99.90;;;11.10;76.73;101104.22;5074796;28;20037;-73
2021/04/30 04:37:12;;;;;;;28.23;9.82;;;10.80;99.90;;;11.05;77.13;101108.69;5073380;28;20139;-74
2021/04/30 04:39:40;;;;;;;31.60;10.38;;;10.70;99.90;;;11.01;77.62;101101.63;5073402;28;20044;-73
2021/04/30 04:42:08;;;;;;;30.75;11.13;;;10.70;99.90;;;10.99;77.90;101107.78;5074643;28;20048;-73
2021/04/30 04:44:36;;;;;;;33.10;10.65;;;10.70;99.90;;;11.24;77.46;101109.50;5074699;28;20119;-73
2021/04/30 04:47:04;;;;;;;26.80;10.55;;;10.90;99.90;;;11.42;77.17;101107.63;5073215;28;20630;-73
2021/04/30 04:49:32;;;;;;;22.10;9.88;;;11.00;99.90;;;11.15;77.73;101109.53;5074477;28;20049;-73
2021/04/30 04:52:00;;;;;;;24.60;10.13;;;10.90;99.90;;;11.19;77.27;101112.13;5074369;28;20101;-73
2021/04/30 04:54:28;;;;;;;25.67;9.88;;;10.90;99.90;;;11.09;78.03;101115.69;5072711;28;20052;-73
2021/04/30 04:56:56;;;;;;;21.70;10.85;;;10.80;99.90;;;11.26;78.06;101113.00;5074066;28;20055;-73
2021/04/30 04:59:23;;;;;;;27.15;12.30;;;10.90;99.90;;;11.31;77.40;101116.50;5074260;28;20044;-74
2021/04/30 05:01:51;;;;;;;23.52;11.25;;;10.90;99.90;;;11.40;77.45;101105.91;5073783;28;20041;-74
2021/04/30 05:04:18;;;;;;;27.00;10.60;;;11.00;99.90;;;11.55;76.64;101113.78;5073874;28;20504;-74
2021/04/30 05:06:47;;;;;;;30.33;10.43;;;11.20;99.90;;;11.59;76.33;101107.59;5074125;28;20037;-74
2021/04/30 05:09:15;;;;;;;20.88;11.07;;;11.20;99.90;;;11.60;76.43;101111.97;5073773;28;20060;-73
2021/04/30 05:11:42;;;;;;;27.08;12.52;;;11.30;99.90;;;11.60;76.39;101111.97;5073973;28;20120;-74
2021/04/30 05:14:10;;;;;;;30.70;14.63;;;11.20;99.90;;;11.73;75.73;101117.25;5074034;28;20040;-73
2021/04/30 05:16:37;;;;;;;23.05;13.93;;;11.40;99.90;;;11.70;75.15;101101.38;5073655;28;20041;-73
2021/04/30 05:19:05;;;;;;;27.08;17.05;;;11.50;99.90;;;11.64;74.99;101117.28;5072537;28;20041;-74
2021/04/30 05:21:34;;;;;;;25.30;17.08;;;11.40;99.90;;;11.78;74.68;101122.53;5073403;28;20501;-74
2021/04/30 05:24:03;;;;;;;23.63;16.52;;;11.50;99.90;;;11.69;74.77;101131.41;5073768;28;20472;-74
2021/04/30 05:26:30;;;;;;;23.70;16.25;;;11.40;99.90;;;11.58;74.97;101127.88;5073757;28;20051;-74
2021/04/30 05:28:59;;;;;;;24.77;17.50;;;11.30;99.90;;;11.56;75.31;101129.66;5073634;28;20041;-74
2021/04/30 05:31:27;;;;;;;24.67;16.95;;;11.20;99.90;;;11.62;75.38;101129.63;5073367;28;20055;-73
2021/04/30 05:33:54;;;;;;;22.90;16.67;;;11.30;99.90;;;11.68;75.34;101134.06;5073543;28;20044;-74
2021/04/30 05:36:22;;;;;;;25.58;16.95;;;11.40;99.90;;;11.61;75.40;101137.59;5073488;28;20442;-73
2021/04/30 05:38:49;;;;;;;29.65;18.15;;;11.40;99.90;;;11.69;75.60;101136.69;5089092;28;20094;-74
2021/04/30 05:41:18;;;;;;;25.98;17.65;;;11.50;99.90;;;11.71;75.42;101140.22;5073126;28;20051;-73
2021/04/30 05:43:45;;;;;;;21.77;16.25;;;11.50;99.90;;;11.64;75.71;101135.81;5073205;28;20082;-73
2021/04/30 05:46:13;;;;;;;25.23;15.90;;;11.40;99.90;;;11.75;75.97;101139.31;5071969;28;20436;-73
2021/04/30 05:48:40;;;;;;;29.35;16.08;;;11.50;99.90;;;11.73;75.93;101148.16;5073314;28;20032;-73
2021/04/30 05:51:08;;;;;;;19.50;14.63;;;11.50;99.90;;;11.76;76.10;101149.03;5073340;28;20044;-73
2021/04/30 05:53:36;;;;;;;25.23;16.77;;;11.50;99.90;;;10.53;76.68;101043.53;5073271;28;20461;-75
2021/04/30 05:56:12;;;;;;;27.80;18.45;;;11.30;99.90;;;11.22;78.50;101162.47;5073272;28;20409;-73
2021/04/30 05:58:40;;;;;;;30.73;18.30;;;11.00;99.90;;;11.32;77.98;101143.00;5073194;28;20094;-73
2021/04/30 06:01:08;;;;;;;27.35;17.02;;;11.10;99.90;;;11.51;77.69;101152.66;5073065;28;20125;-73
2021/04/30 06:03:35;;;;;;;30.33;17.45;;;11.20;99.90;;;11.58;77.56;101162.34;5073108;28;20044;-73
2021/04/30 06:06:03;;;;;;;25.35;16.10;;;11.30;99.90;;;11.55;77.34;101161.47;5072814;28;20055;-73
2021/04/30 06:08:31;;;;;;;29.27;16.75;;;11.30;99.90;;;11.48;77.82;101155.31;5072848;28;20098;-73
2021/04/30 06:10:58;;;;;;;33.13;17.92;;;11.20;99.90;;;11.59;77.62;101166.72;5073304;28;20047;-73
2021/04/30 06:13:25;;;;;;;26.63;17.60;;;11.30;99.90;;;11.50;78.19;101156.19;5072865;28;20040;-73
2021/04/30 06:15:54;;;;;;;33.45;16.92;;;11.20;99.90;;;11.64;77.58;101159.66;5073151;28;20044;-73
2021/04/30 06:18:21;;;;;;;28.55;18.25;;;11.30;99.90;;;11.66;77.71;101157.91;5072982;28;20047;-73
2021/04/30 06:20:49;;;;;;;28.17;18.17;;;11.30;99.90;;;11.53;77.79;101164.13;5072823;28;20049;-73
2021/04/30 06:23:16;;;;;;;25.42;17.13;;;11.30;99.90;;;11.67;77.90;101161.47;5072644;28;20037;-73
2021/04/30 06:25:44;;;;;;;29.35;17.27;;;11.40;99.90;;;11.62;77.18;101166.72;5072858;28;20090;-73
2021/04/30 06:28:11;;;;;;;28.67;17.10;;;11.30;99.90;;;11.63;77.73;101160.53;5072523;28;20056;-73
2021/04/30 06:30:39;;;;;;;30.10;17.65;;;11.30;99.90;;;11.67;77.67;101159.66;5072588;28;20457;-73
2021/04/30 06:33:09;;;;;;;24.55;16.58;;;11.40;99.90;;;11.72;77.40;101165.84;5072829;28;20044;-73
2021/04/30 06:35:37;;;;;;;30.75;17.33;;;11.40;99.90;;;11.81;77.04;101159.59;5072841;28;20135;-74
2021/04/30 06:38:05;;;;;;;27.80;17.60;;;11.60;99.90;;;11.83;76.70;101151.66;5072548;28;20498;-72
2021/04/30 06:40:33;;;;;;;27.88;17.42;;;11.60;99.90;;;11.85;76.70;101164.00;5072412;28;20094;-72
2021/04/30 06:43:00;;;;;;;31.33;17.33;;;11.70;99.90;;;11.79;76.63;101149.03;5073021;28;20123;-72
2021/04/30 06:45:28;;;;;;;31.98;17.58;;;11.60;99.90;;;11.88;76.98;101168.41;5076455;28;20124;-72
2021/04/30 06:47:56;;;;;;;26.70;17.08;;;11.60;99.90;;;11.92;76.80;101164.88;5075368;28;20048;-72
2021/04/30 06:50:24;;;;;;;25.75;17.52;;;11.60;99.90;;;11.87;77.02;101161.34;5075391;28;20468;-72
2021/04/30 06:52:54;;;;;;;22.05;15.30;;;11.70;99.90;;;11.98;77.03;101167.50;5076455;28;20059;-73
2021/04/30 06:55:22;;;;;;;27.92;17.25;;;11.70;99.90;;;12.06;76.67;101169.19;5076012;28;20056;-72
2021/04/30 06:57:49;;;;;;;29.77;16.65;;;11.80;99.90;;;12.02;76.63;101171.88;5092132;28;20056;-73
2021/04/30 07:00:17;;;;;;;28.05;18.45;;;11.70;99.90;;;12.19;76.64;101173.56;5076508;28;20063;-73
2021/04/30 07:02:45;;;;;;;24.90;15.77;;;11.90;99.90;;;12.23;76.47;101172.63;5076117;28;20063;-73
2021/04/30 07:05:14;;;;;;;32.63;16.33;;;12.00;99.90;;;12.09;76.21;101163.00;5076751;28;20131;-73
2021/04/30 07:07:42;;;;;;;26.50;16.20;;;11.90;99.90;;;12.18;76.72;101187.69;5076047;28;20051;-73
2021/04/30 07:10:12;;;;;;;26.05;16.63;;;11.90;99.90;;;12.08;75.99;101201.88;5076319;28;20049;-71
2021/04/30 07:12:39;;;;;;;30.88;16.35;;;11.80;99.90;;;12.11;76.10;101187.75;5076286;28;20094;-74
2021/04/30 07:15:09;;;;;;;29.13;17.42;;;11.80;99.90;;;12.01;76.44;101184.25;5076212;28;20037;-74
2021/04/30 07:17:37;;;;;;;28.50;17.23;;;11.80;99.90;;;12.03;76.83;101178.94;5076233;28;20033;-70
2021/04/30 07:20:07;;;;;;;23.88;16.17;;;11.80;99.90;;;12.25;76.42;101185.91;5076944;28;20166;-76
2021/04/30 07:22:34;;;;;;;28.13;16.08;;;11.90;99.90;;;12.03;76.09;101184.25;5093317;28;20420;-74
2021/04/30 07:25:04;;;;;;;25.17;15.77;;;11.80;99.90;;;12.12;76.62;101189.47;5076033;28;20059;-78
2021/04/30 07:27:31;;;;;;;27.65;16.30;;;11.80;99.90;;;12.13;75.98;101188.63;5092739;28;20048;-81
2021/04/30 07:29:59;;;;;;;28.25;15.63;;;11.80;99.90;;;11.90;76.06;101179.91;5074985;28;20545;-78
2021/04/30 07:32:27;;;;;;;28.20;16.70;;;11.70;99.90;;;11.69;76.73;101173.78;5076675;28;20048;-84
2021/04/30 07:34:55;;;;;;;31.60;16.88;;;11.50;99.90;;;11.81;76.67;101175.50;5077169;28;20041;-86
2021/04/30 07:37:23;;;;;;;23.90;17.10;;;11.50;99.90;;;11.67;77.13;101188.81;5076128;28;20045;-74
2021/04/30 07:39:50;;;;;;;24.52;16.15;;;11.40;99.90;;;11.84;76.38;101182.56;5074329;28;20053;-75
2021/04/30 07:42:18;;;;;;;32.63;16.05;;;11.50;99.90;;;11.53;76.59;101171.19;5075681;28;20076;-72
2021/04/30 07:44:46;;;;;;;28.60;17.58;;;11.40;99.90;;;11.80;76.48;101189.66;5075685;28;20060;-75
2021/04/30 07:47:14;;;;;;;30.35;17.58;;;11.50;99.90;;;11.81;75.99;101187.91;5075575;28;20041;-75
2021/04/30 07:49:42;;;;;;;28.55;17.70;;;11.50;99.90;;;11.77;75.93;101185.25;5075606;28;20044;-74
2021/04/30 07:52:10;;;;;;;30.52;17.33;;;11.50;99.90;;;11.92;75.81;101180.78;5075256;28;20498;-70
2021/04/30 07:54:39;;;;;;;26.83;17.60;;;11.60;99.90;;;11.69;75.74;101179.09;5075227;28;20049;-70
2021/04/30 07:57:07;;;;;;;30.60;16.77;;;11.60;99.90;;;11.58;75.95;101183.53;5075553;28;20094;-70
2021/04/30 07:59:35;;;;;;;31.20;16.63;;;11.40;99.90;;;11.28;76.85;101186.28;5074168;28;20052;-69
2021/04/30 08:02:04;;;;;;;30.13;17.25;;;11.10;99.90;;;11.47;77.00;101184.44;5073702;28;20101;-74
2021/04/30 08:04:32;;;;;;;30.35;14.27;;;11.20;99.90;;;11.60;76.46;101195.00;5074011;28;20079;-74
2021/04/30 08:07:00;;;;;;;24.75;15.13;;;11.30;99.90;;;11.62;76.17;101187.03;5075204;28;20111;-74
2021/04/30 08:09:27;;;;;;;30.67;16.13;;;11.40;99.90;;;11.58;76.58;101191.47;5075140;28;20084;-73
2021/04/30 08:11:55;;;;;;;27.70;15.23;;;11.30;99.90;;;11.62;76.11;101189.69;5075165;28;20040;-75
2021/04/30 08:14:22;;;;;;;23.45;13.48;;;11.40;99.90;;;11.65;76.03;101187.94;5075162;28;20052;-74
2021/04/30 08:16:51;;;;;;;29.67;14.88;;;11.40;99.90;;;11.68;76.10;101189.69;5075120;28;20049;-74
2021/04/30 08:19:18;;;;;;;31.45;15.70;;;11.50;99.90;;;11.71;76.18;101185.28;5074809;28;20098;-74
2021/04/30 08:21:46;;;;;;;26.67;15.23;;;11.50;99.90;;;11.69;76.14;101180.88;5074812;28;20071;-75
2021/04/30 08:24:13;;;;;;;33.15;14.40;;;11.60;99.90;;;11.44;76.68;101187.97;5074665;28;20044;-76
2021/04/30 08:26:40;;;;;;;25.38;14.57;;;11.30;99.90;;;11.46;77.30;101193.25;5074664;28;20064;-75
2021/04/30 08:29:08;;;;;;;24.38;15.20;;;11.20;99.90;;;11.55;76.86;101198.56;5074616;28;20048;-75
2021/04/30 08:31:35;;;;;;;25.38;16.05;;;11.30;99.90;;;11.56;77.19;101201.19;5074777;28;20049;-75
2021/04/30 08:34:04;;;;;;;28.63;15.88;;;11.30;99.90;;;11.47;77.12;101195.94;5074800;28;20044;-75
2021/04/30 08:36:32;;;;;;;23.85;14.45;;;11.30;99.90;;;11.37;77.55;101209.19;5074493;28;20398;-76
2021/04/30 08:38:59;;;;;;;25.17;14.15;;;11.10;99.90;;;11.46;77.31;101212.69;5074658;28;20057;-75
2021/04/30 08:41:27;;;;;;;22.25;15.02;;;11.20;99.90;;;11.25;77.62;101196.84;5074519;28;20119;-75
2021/04/30 08:43:55;;;;;;;32.08;15.35;;;11.10;99.90;;;11.31;78.08;101203.91;5073195;28;20052;-75
2021/04/30 08:46:26;;;;;;;30.08;14.75;;;11.00;99.90;;;11.29;77.23;101185.38;5074494;28;20040;-75
2021/04/30 08:48:53;;;;;;;25.80;14.27;;;11.10;99.90;;;11.58;76.92;101212.66;5074280;28;20044;-75
2021/04/30 08:51:21;;;;;;;25.40;13.90;;;11.30;99.90;;;11.48;76.96;101210.94;5074435;28;20053;-76
2021/04/30 08:53:49;;;;;;;25.40;14.55;;;11.20;99.90;;;11.68;76.88;101209.16;5074402;28;20451;-75
2021/04/30 08:56:21;;;;;;;20.55;13.40;;;11.40;99.90;;;11.78;76.71;101220.59;5089646;28;20387;-75
2021/04/30 08:58:49;;;;;;;24.27;14.18;;;11.50;99.90;;;11.83;76.68;101216.13;5074065;28;20044;-75
2021/04/30 09:01:16;;;;;;;22.48;13.68;;;11.50;99.90;;;11.81;76.40;101217.06;5074151;28;20052;-75
2021/04/30 09:03:44;;;;;;;25.15;13.23;;;11.60;99.90;;;11.83;75.77;101244.44;5073954;28;20181;-75
2021/04/30 09:06:18;;;;;;;19.73;11.00;;;11.60;99.90;;;11.77;75.31;101218.81;5072311;28;20052;-76
2021/04/30 09:08:49;;;;;;;20.40;12.40;;;11.60;99.90;;;11.79;75.00;101227.63;5074182;28;20090;-76
2021/04/30 09:11:33;;;;;;;;;;;11.60;99.90;;;11.67;75.08;101202.06;5074089;28;20036;-76
2021/04/30 09:14:35;;;;;;;23.00;13.13;;;11.60;99.90;;;11.91;75.03;101226.72;5073765;28;19927;-75
2021/04/30 09:17:09;;;;;;;20.58;11.98;;;11.60;99.90;;;11.88;75.20;101232.03;5014958;28;20049;-75
2021/04/30 09:19:44;;;;;;;21.38;11.68;;;11.60;99.90;;;11.47;76.10;101238.31;5031620;28;20072;-75
2021/04/30 09:22:12;;;;;;;19.35;12.10;;;11.30;99.90;;;11.62;75.79;101240.03;5055300;28;20109;-75
2021/04/30 09:24:41;;;;;;;25.25;12.50;;;11.30;99.90;;;11.27;76.60;101234.81;5073789;28;20048;-75
2021/04/30 09:27:09;;;;;;;20.92;11.65;;;11.10;99.90;;;11.23;77.27;101225.09;5074014;28;20052;-75
2021/04/30 09:29:37;;;;;;;24.55;13.23;;;11.00;99.90;;;11.55;76.82;101243.59;5073366;28;20549;-75
2021/04/30 09:32:11;;;;;;;25.55;12.45;;;11.20;99.90;;;11.37;76.59;101249.81;5073512;28;20041;-75
2021/04/30 09:34:41;;;;;;;24.65;12.32;;;11.10;99.90;;;11.40;76.48;101241.84;5089315;28;20494;-75
2021/04/30 09:37:15;;;;;;;22.17;11.60;;;11.20;99.90;;;11.13;77.37;101244.53;5073428;28;20131;-75
2021/04/30 09:39:56;;;;;;;26.85;12.60;;;11.00;99.90;;;11.06;78.17;101250.72;5072224;28;20052;-76
2021/04/30 09:42:26;;;;;;;22.17;11.60;;;10.80;99.90;;;10.97;78.12;101248.09;5073122;28;20410;-75
2021/04/30 09:44:57;;;;;;;22.15;11.35;;;10.80;99.90;;;11.21;77.77;101255.09;5071397;28;20063;-76
2021/04/30 09:47:27;;;;;;;17.77;11.85;;;10.90;99.90;;;11.07;78.10;101257.75;5073448;28;20078;-75
2021/04/30 09:49:57;;;;;;;24.27;12.07;;;10.80;99.90;;;11.18;77.80;101255.13;5073206;28;20075;-75
2021/04/30 09:52:27;;;;;;;21.65;11.93;;;10.90;99.90;;;11.03;78.07;101244.53;5073111;28;20049;-75
2021/04/30 09:55:01;;;;;;;19.83;11.70;;;10.80;99.90;;;11.07;78.11;101260.41;5073112;28;20059;-75
2021/04/30 09:57:30;;;;;;;23.65;12.32;;;10.70;99.90;;;11.05;77.73;101246.31;5071905;28;20794;-75
2021/04/30 10:00:00;;;;;;;20.15;12.00;;;10.80;99.90;;;10.98;78.13;101263.06;5072759;28;20149;-75
2021/04/30 10:02:34;;;;;;;23.87;12.57;;;10.80;99.90;;;10.89;78.63;101260.44;5071828;28;20382;-75
2021/04/30 10:05:10;;;;;;;25.45;12.10;;;10.60;99.90;;;11.01;78.28;101254.25;5073163;28;20402;-75
2021/04/30 10:07:57;;;;;;;20.85;12.40;;;10.80;99.90;;;11.27;77.69;101266.59;5073076;28;20090;-75